»·PEaware :: N6999J KSBA-KSBP

N6999J :: KSBA-KSBP

FLIGHT INFORMATION

Flight Status: Arrived
Operator: Privately registered:
United States
More flights under this callsign
Pilot: Bryan N. (13862)
Aircraft: PIPER PA-28R-201 ARROW
(P28R)
More flights by this aircraft type
Origin: KSBA Santa Barbara Mun
United States
Destination: KSBP San Luis Co Regl
United States
More flights between these airports :: More routes between these airports
Route: +GVO V27 MQO
File this flight plan on PilotEdge
Remarks: Simulating 1 / 2SM OVC002, multiple approaches SBP
Altitude:
(Current/Filed)
8,000ft
Speed:
(Current/Filed)
145kts
Departed: 07-Jan-18 09:31 AM
Arrived: 07-Jan-18 10:50 AM
Distance/Time
Traveled:
63nm/1:19
Distance/Time
To Go:
Arrived

Flight Plot

Page will automatically refresh every two minutes.


Map Options




Map Legend


Flown Route
Filed Route
Departure Airport
Arrival Airport
Navaid (VOR, NDB)
Fix

Horizontal Profiles

Position Reports

Time Latitude Longitude Heading Altitude Ground
Speed
07-Jan-18 09:19 34.429656 -119.844134 329 13ft 0kts
07-Jan-18 09:20 34.429656 -119.844134 329 13ft 0kts
07-Jan-18 09:21 34.429656 -119.844134 329 13ft 0kts
07-Jan-18 09:22 34.429656 -119.844134 329 13ft 0kts
07-Jan-18 09:23 34.429656 -119.844134 329 13ft 0kts
07-Jan-18 09:24 34.429659 -119.844136 329 13ft 0kts
07-Jan-18 09:25 34.429662 -119.844139 329 13ft 0kts
07-Jan-18 09:26 34.429665 -119.844141 329 13ft 0kts
07-Jan-18 09:27 34.429668 -119.844143 329 13ft 0kts
07-Jan-18 09:28 34.429441 -119.843961 144 13ft 0kts
07-Jan-18 09:29 34.429438 -119.843959 144 13ft 0kts
07-Jan-18 09:30 34.429576 -119.843086 58 13ft 6kts
07-Jan-18 09:31 34.430110 -119.841981 74 13ft 0kts
07-Jan-18 09:32 34.430111 -119.841977 74 13ft 0kts
07-Jan-18 09:33 34.430112 -119.841968 74 13ft 0kts
07-Jan-18 09:34 34.430113 -119.841964 74 13ft 0kts
07-Jan-18 09:35 34.430114 -119.841961 74 13ft 0kts
07-Jan-18 09:36 34.429378 -119.841158 165 13ft 32kts
07-Jan-18 09:37 34.406575 -119.833716 163 664ft 105kts
07-Jan-18 09:38 34.377920 -119.824353 164 1760ft 107kts
07-Jan-18 09:39 34.348631 -119.815033 165 2663ft 109kts
07-Jan-18 09:40 34.335828 -119.836396 303 3477ft 108kts
07-Jan-18 09:41 34.356120 -119.863298 313 4282ft 108kts
07-Jan-18 09:42 34.377211 -119.890140 312 5056ft 110kts
07-Jan-18 09:43 34.398042 -119.917390 309 5819ft 111kts
07-Jan-18 09:44 34.418834 -119.944857 309 6577ft 109kts
07-Jan-18 09:45 34.440113 -119.972205 310 7249ft 111kts
07-Jan-18 09:46 34.461223 -119.999976 310 7837ft 113kts
07-Jan-18 09:47 34.483836 -120.029983 309 8185ft 126kts
07-Jan-18 09:48 34.509851 -120.063991 311 8018ft 149kts
07-Jan-18 09:49 34.539432 -120.099422 319 7874ft 147kts
07-Jan-18 09:50 34.571622 -120.128537 319 7909ft 140kts
07-Jan-18 09:51 34.602355 -120.155886 319 7980ft 134kts
07-Jan-18 09:52 34.632419 -120.184090 318 8036ft 139kts
07-Jan-18 09:53 34.663534 -120.213390 318 8136ft 140kts
07-Jan-18 09:54 34.694975 -120.242471 318 8186ft 143kts
07-Jan-18 09:55 34.727376 -120.272855 318 8017ft 151kts
07-Jan-18 09:56 34.760346 -120.303136 320 7968ft 146kts
07-Jan-18 09:57 34.792898 -120.332412 319 8008ft 144kts
07-Jan-18 09:58 34.824826 -120.362670 318 8020ft 145kts
07-Jan-18 09:59 34.857189 -120.392190 320 8019ft 145kts
07-Jan-18 10:00 34.890278 -120.421748 319 7760ft 151kts
07-Jan-18 10:01 34.923334 -120.453341 319 7489ft 153kts
07-Jan-18 10:02 34.957014 -120.486968 318 7113ft 157kts
07-Jan-18 10:03 34.991739 -120.520181 320 6720ft 158kts
07-Jan-18 10:04 35.027222 -120.552157 321 6285ft 158kts
07-Jan-18 10:05 35.063202 -120.583032 322 5804ft 158kts
07-Jan-18 10:06 35.097823 -120.615880 320 5245ft 157kts
07-Jan-18 10:07 35.132075 -120.648728 322 4655ft 155kts
07-Jan-18 10:08 35.166309 -120.680276 323 4284ft 155kts
07-Jan-18 10:09 35.200871 -120.711488 322 3985ft 157kts
07-Jan-18 10:10 35.233360 -120.743300 319 3913ft 144kts
07-Jan-18 10:11 35.255997 -120.779380 279 3947ft 134kts
07-Jan-18 10:12 35.261751 -120.825739 277 3742ft 138kts
07-Jan-18 10:13 35.284147 -120.859993 319 3602ft 124kts
07-Jan-18 10:14 35.295305 -120.893712 215 3277ft 138kts
07-Jan-18 10:15 35.272076 -120.870172 107 2946ft 124kts
07-Jan-18 10:16 35.262430 -120.831803 106 2786ft 110kts
07-Jan-18 10:17 35.256788 -120.795231 98 2749ft 109kts
07-Jan-18 10:18 35.252471 -120.759949 99 2708ft 97kts
07-Jan-18 10:19 35.247849 -120.728833 98 2278ft 93kts
07-Jan-18 10:20 35.243965 -120.697969 99 1781ft 91kts
07-Jan-18 10:21 35.239877 -120.668270 97 1429ft 92kts
07-Jan-18 10:22 35.233494 -120.638846 140 1482ft 103kts
07-Jan-18 10:23 35.203783 -120.639371 183 2480ft 114kts
07-Jan-18 10:24 35.171733 -120.642856 190 3320ft 115kts
07-Jan-18 10:25 35.142971 -120.630622 131 3989ft 122kts
07-Jan-18 10:26 35.119014 -120.594514 130 4055ft 142kts
07-Jan-18 10:27 35.091309 -120.558357 135 4059ft 150kts
07-Jan-18 10:28 35.062408 -120.521945 134 4053ft 147kts
07-Jan-18 10:29 35.034157 -120.485361 132 4086ft 147kts
07-Jan-18 10:30 35.005841 -120.448390 133 4085ft 149kts
07-Jan-18 10:31 34.981190 -120.409499 89 4085ft 150kts
07-Jan-18 10:32 35.012742 -120.402849 333 4186ft 142kts
07-Jan-18 10:33 35.048774 -120.424209 331 4184ft 145kts
07-Jan-18 10:34 35.085806 -120.444575 340 4118ft 147kts
07-Jan-18 10:35 35.125413 -120.459032 322 3656ft 148kts
07-Jan-18 10:36 35.152208 -120.496380 306 2884ft 134kts
07-Jan-18 10:37 35.167844 -120.522151 307 2626ft 104kts
07-Jan-18 10:38 35.187809 -120.554490 304 1939ft 100kts
07-Jan-18 10:39 35.203949 -120.582771 306 1279ft 101kts
07-Jan-18 10:40 35.217167 -120.605961 305 1050ft 99kts
07-Jan-18 10:41 35.235917 -120.639515 301 1929ft 103kts
07-Jan-18 10:42 35.249830 -120.664717 304 2674ft 107kts
07-Jan-18 10:43 35.266259 -120.703166 288 3604ft 109kts
07-Jan-18 10:44 35.275512 -120.733653 292 4039ft 123kts
07-Jan-18 10:45 35.289483 -120.775523 292 4092ft 141kts
07-Jan-18 10:46 35.305567 -120.821793 292 3988ft 147kts
07-Jan-18 10:47 35.322431 -120.867326 318 3941ft 150kts
07-Jan-18 10:48 35.351592 -120.845457 98 3394ft 156kts
07-Jan-18 10:49 35.330067 -120.804495 126 2968ft 129kts
07-Jan-18 10:50 35.312041 -120.773468 124 2705ft 100kts
07-Jan-18 10:51 35.296624 -120.745701 123 2123ft 97kts
07-Jan-18 10:52 35.281281 -120.718560 120 1507ft 96kts
07-Jan-18 10:53 35.266269 -120.691896 124 1016ft 97kts
07-Jan-18 10:54 35.251496 -120.665731 124 579ft 90kts
07-Jan-18 10:55 35.238810 -120.643569 123 215ft 56kts
07-Jan-18 10:56 35.235824 -120.637889 99 215ft 8kts
07-Jan-18 10:57 35.236655 -120.637891 306 215ft 12kts
07-Jan-18 10:58 35.238049 -120.639399 297 215ft 0kts
07-Jan-18 10:59 35.238049 -120.639399 297 215ft 0kts

Navigation Log

Ident Type
Flight plan parsing failed, navigation log unavailable